Sign-in with your pilot id or email, or register

ICAO: VTBS Name / Country: Suvarnabhumi / Thailand
Latitude: 13.6811 Longitude: 100.747
Total Arrivals:
Strict Standards: Non-static method AirportData::getarrflights() should not be called statically, assuming $this from incompatible context in /var/www/customers/vh-7192/web/home/phpvms/core/templates/airport_info.tpl on line 18
2
Total Departures:
Strict Standards: Non-static method AirportData::getdeptflights() should not be called statically, assuming $this from incompatible context in /var/www/customers/vh-7192/web/home/phpvms/core/templates/airport_info.tpl on line 21
2
Latest Arrival: MTA5PM (VGZR-VTBS) Tibor Berces Latest Departure: MTA5PM (VTBS-WSSS) Tibor Berces
Metar: VTBS 172230Z 03005KT 8000 FEW020 BKN100 25/24 Q1008 NOSIG
More info

Charts for VTBS


NOTAM


Warning: file_get_contents(http://api.vateud.net/notams/VTBS.json): failed to open stream: Redirection limit reached, aborting in /var/www/customers/vh-7192/web/home/phpvms/core/common/NOTAMSData.class.php on line 18

Warning: Invalid argument supplied for foreach() in /var/www/customers/vh-7192/web/home/phpvms/core/common/NOTAMSData.class.php on line 22

Suvarnabhumi